sensor_id;sensor_type;location;lat;lon;timestamp;temperature;humidity
15997;DHT22;8103;51.340;12.326;2023-04-01T00:02:26;9.70;99.90
15997;DHT22;8103;51.340;12.326;2023-04-01T00:04:53;9.70;99.90
15997;DHT22;8103;51.340;12.326;2023-04-01T00:07:20;9.80;99.90
15997;DHT22;8103;51.340;12.326;2023-04-01T00:09:47;9.80;99.90
15997;DHT22;8103;51.340;12.326;2023-04-01T00:12:14;9.80;99.90
15997;DHT22;8103;51.340;12.326;2023-04-01T00:14:41;9.80;99.90
15997;DHT22;8103;51.340;12.326;2023-04-01T00:17:08;9.90;99.90
15997;DHT22;8103;51.340;12.326;2023-04-01T00:19:34;9.90;99.90
15997;DHT22;8103;51.340;12.326;2023-04-01T00:22:01;9.90;99.90
15997;DHT22;8103;51.340;12.326;2023-04-01T00:24:29;9.90;99.90
15997;DHT22;8103;51.340;12.326;2023-04-01T00:26:55;9.80;99.90
15997;DHT22;8103;51.340;12.326;2023-04-01T00:29:22;9.80;99.90
15997;DHT22;8103;51.340;12.326;2023-04-01T00:31:50;9.80;99.90
15997;DHT22;8103;51.340;12.326;2023-04-01T00:34:17;9.80;99.90
15997;DHT22;8103;51.340;12.326;2023-04-01T00:36:44;9.80;99.90
15997;DHT22;8103;51.340;12.326;2023-04-01T00:39:11;9.80;99.90
15997;DHT22;8103;51.340;12.326;2023-04-01T00:41:38;9.70;99.90
15997;DHT22;8103;51.340;12.326;2023-04-01T00:46:48;9.70;99.90
15997;DHT22;8103;51.340;12.326;2023-04-01T00:49:17;9.70;99.90
15997;DHT22;8103;51.340;12.326;2023-04-01T00:51:47;9.70;99.90
15997;DHT22;8103;51.340;12.326;2023-04-01T00:54:19;9.70;99.90
15997;DHT22;8103;51.340;12.326;2023-04-01T00:57:00;9.70;99.90
15997;DHT22;8103;51.340;12.326;2023-04-01T00:59:35;9.70;99.90
15997;DHT22;8103;51.340;12.326;2023-04-01T01:02:07;9.60;99.90
15997;DHT22;8103;51.340;12.326;2023-04-01T01:04:37;9.60;99.90
15997;DHT22;8103;51.340;12.326;2023-04-01T01:16:25;9.60;99.90
15997;DHT22;8103;51.340;12.326;2023-04-01T01:19:40;9.60;99.90
15997;DHT22;8103;51.340;12.326;2023-04-01T01:22:22;9.60;99.90
15997;DHT22;8103;51.340;12.326;2023-04-01T01:28:24;9.70;99.90
15997;DHT22;8103;51.340;12.326;2023-04-01T01:31:11;9.70;99.90
15997;DHT22;8103;51.340;12.326;2023-04-01T01:34:28;9.70;99.90
15997;DHT22;8103;51.340;12.326;2023-04-01T01:37:12;9.70;99.90
15997;DHT22;8103;51.340;12.326;2023-04-01T01:39:46;9.70;99.90
15997;DHT22;8103;51.340;12.326;2023-04-01T01:42:19;9.70;99.90
15997;DHT22;8103;51.340;12.326;2023-04-01T01:44:49;9.70;99.90
15997;DHT22;8103;51.340;12.326;2023-04-01T01:47:19;9.70;99.90
15997;DHT22;8103;51.340;12.326;2023-04-01T01:49:48;9.70;99.90
15997;DHT22;8103;51.340;12.326;2023-04-01T01:52:17;9.70;99.90
15997;DHT22;8103;51.340;12.326;2023-04-01T01:54:52;9.80;99.90
15997;DHT22;8103;51.340;12.326;2023-04-01T01:57:24;9.80;99.90
15997;DHT22;8103;51.340;12.326;2023-04-01T02:00:07;9.80;99.90
15997;DHT22;8103;51.340;12.326;2023-04-01T02:02:41;9.80;99.90
15997;DHT22;8103;51.340;12.326;2023-04-01T02:05:14;9.80;99.90
15997;DHT22;8103;51.340;12.326;2023-04-01T02:07:47;9.80;99.90
15997;DHT22;8103;51.340;12.326;2023-04-01T02:10:22;9.80;99.90
15997;DHT22;8103;51.340;12.326;2023-04-01T02:12:58;9.80;99.90
15997;DHT22;8103;51.340;12.326;2023-04-01T02:15:31;9.80;99.90
15997;DHT22;8103;51.340;12.326;2023-04-01T02:18:04;9.80;99.90
15997;DHT22;8103;51.340;12.326;2023-04-01T02:20:32;9.80;99.90
15997;DHT22;8103;51.340;12.326;2023-04-01T02:22:59;9.80;99.90
15997;DHT22;8103;51.340;12.326;2023-04-01T02:25:29;9.80;99.90
15997;DHT22;8103;51.340;12.326;2023-04-01T02:28:00;9.80;99.90
15997;DHT22;8103;51.340;12.326;2023-04-01T02:30:32;9.80;99.90
15997;DHT22;8103;51.340;12.326;2023-04-01T02:33:02;9.80;99.90
15997;DHT22;8103;51.340;12.326;2023-04-01T02:35:34;9.80;99.90
15997;DHT22;8103;51.340;12.326;2023-04-01T02:38:03;9.80;99.90
15997;DHT22;8103;51.340;12.326;2023-04-01T02:40:50;9.80;99.90
15997;DHT22;8103;51.340;12.326;2023-04-01T02:43:23;9.80;99.90
15997;DHT22;8103;51.340;12.326;2023-04-01T02:45:50;9.80;99.90
15997;DHT22;8103;51.340;12.326;2023-04-01T02:48:17;9.80;99.90
15997;DHT22;8103;51.340;12.326;2023-04-01T02:50:44;9.80;99.90
15997;DHT22;8103;51.340;12.326;2023-04-01T02:53:11;9.70;99.90
15997;DHT22;8103;51.340;12.326;2023-04-01T02:55:38;9.80;99.90
15997;DHT22;8103;51.340;12.326;2023-04-01T02:58:05;9.80;99.90
15997;DHT22;8103;51.340;12.326;2023-04-01T03:00:32;9.70;99.90
15997;DHT22;8103;51.340;12.326;2023-04-01T03:02:59;9.80;99.90
15997;DHT22;8103;51.340;12.326;2023-04-01T03:05:26;9.80;99.90
15997;DHT22;8103;51.340;12.326;2023-04-01T03:07:53;9.80;99.90
15997;DHT22;8103;51.340;12.326;2023-04-01T03:10:20;9.80;99.90
15997;DHT22;8103;51.340;12.326;2023-04-01T03:12:47;9.80;99.90
15997;DHT22;8103;51.340;12.326;2023-04-01T03:15:14;9.80;99.90
15997;DHT22;8103;51.340;12.326;2023-04-01T03:17:42;9.80;99.90
15997;DHT22;8103;51.340;12.326;2023-04-01T03:20:10;9.70;99.90
15997;DHT22;8103;51.340;12.326;2023-04-01T03:22:37;9.80;99.90
15997;DHT22;8103;51.340;12.326;2023-04-01T03:25:08;9.70;99.90
15997;DHT22;8103;51.340;12.326;2023-04-01T03:27:36;9.80;99.90
15997;DHT22;8103;51.340;12.326;2023-04-01T03:30:04;9.80;99.90
15997;DHT22;8103;51.340;12.326;2023-04-01T03:32:32;9.80;99.90
15997;DHT22;8103;51.340;12.326;2023-04-01T03:34:59;9.70;99.90
15997;DHT22;8103;51.340;12.326;2023-04-01T03:37:26;9.70;99.90
15997;DHT22;8103;51.340;12.326;2023-04-01T03:39:53;9.80;99.90
15997;DHT22;8103;51.340;12.326;2023-04-01T03:42:21;9.80;99.90
15997;DHT22;8103;51.340;12.326;2023-04-01T03:44:47;9.80;99.90
15997;DHT22;8103;51.340;12.326;2023-04-01T03:47:15;9.70;99.90
15997;DHT22;8103;51.340;12.326;2023-04-01T03:49:42;9.70;99.90
15997;DHT22;8103;51.340;12.326;2023-04-01T03:52:10;9.80;99.90
15997;DHT22;8103;51.340;12.326;2023-04-01T03:54:37;9.70;99.90
15997;DHT22;8103;51.340;12.326;2023-04-01T03:57:05;9.70;99.90
15997;DHT22;8103;51.340;12.326;2023-04-01T03:59:32;9.70;99.90
15997;DHT22;8103;51.340;12.326;2023-04-01T04:01:59;9.70;99.90
15997;DHT22;8103;51.340;12.326;2023-04-01T04:04:27;9.70;99.90
15997;DHT22;8103;51.340;12.326;2023-04-01T04:06:54;9.70;99.90
15997;DHT22;8103;51.340;12.326;2023-04-01T04:09:21;9.70;99.90
15997;DHT22;8103;51.340;12.326;2023-04-01T04:11:49;9.70;99.90
15997;DHT22;8103;51.340;12.326;2023-04-01T04:14:19;9.70;99.90
15997;DHT22;8103;51.340;12.326;2023-04-01T04:16:46;9.70;99.90
15997;DHT22;8103;51.340;12.326;2023-04-01T04:19:13;9.70;99.90
15997;DHT22;8103;51.340;12.326;2023-04-01T04:21:41;9.70;99.90
15997;DHT22;8103;51.340;12.326;2023-04-01T04:24:09;9.60;99.90
15997;DHT22;8103;51.340;12.326;2023-04-01T04:26:36;9.60;99.90
15997;DHT22;8103;51.340;12.326;2023-04-01T04:29:03;9.60;99.90
15997;DHT22;8103;51.340;12.326;2023-04-01T04:31:30;9.60;99.90
15997;DHT22;8103;51.340;12.326;2023-04-01T04:33:59;9.60;99.90
15997;DHT22;8103;51.340;12.326;2023-04-01T04:36:29;9.60;99.90
15997;DHT22;8103;51.340;12.326;2023-04-01T04:38:56;9.60;99.90
15997;DHT22;8103;51.340;12.326;2023-04-01T04:41:24;9.60;99.90
15997;DHT22;8103;51.340;12.326;2023-04-01T04:43:55;9.50;99.90
15997;DHT22;8103;51.340;12.326;2023-04-01T04:46:23;9.60;99.90
15997;DHT22;8103;51.340;12.326;2023-04-01T04:48:52;9.50;99.90
15997;DHT22;8103;51.340;12.326;2023-04-01T04:51:20;9.50;99.90
15997;DHT22;8103;51.340;12.326;2023-04-01T04:53:49;9.50;99.90
15997;DHT22;8103;51.340;12.326;2023-04-01T04:56:19;9.50;99.90
15997;DHT22;8103;51.340;12.326;2023-04-01T04:58:48;9.50;99.90
15997;DHT22;8103;51.340;12.326;2023-04-01T05:01:16;9.50;99.90
15997;DHT22;8103;51.340;12.326;2023-04-01T05:03:43;9.40;99.90
15997;DHT22;8103;51.340;12.326;2023-04-01T05:06:13;9.40;99.90
15997;DHT22;8103;51.340;12.326;2023-04-01T05:08:42;9.40;99.90
15997;DHT22;8103;51.340;12.326;2023-04-01T05:11:18;9.40;99.90
15997;DHT22;8103;51.340;12.326;2023-04-01T05:13:46;9.50;99.90
15997;DHT22;8103;51.340;12.326;2023-04-01T05:16:18;9.50;99.90
15997;DHT22;8103;51.340;12.326;2023-04-01T05:22:57;9.50;99.90
15997;DHT22;8103;51.340;12.326;2023-04-01T05:29:25;9.60;99.90
15997;DHT22;8103;51.340;12.326;2023-04-01T05:31:53;9.60;99.90
15997;DHT22;8103;51.340;12.326;2023-04-01T05:34:19;9.60;99.90
15997;DHT22;8103;51.340;12.326;2023-04-01T05:36:46;9.70;99.90
15997;DHT22;8103;51.340;12.326;2023-04-01T05:39:13;9.70;99.90
15997;DHT22;8103;51.340;12.326;2023-04-01T05:45:46;9.70;99.90
15997;DHT22;8103;51.340;12.326;2023-04-01T05:48:15;9.70;99.90
15997;DHT22;8103;51.340;12.326;2023-04-01T05:50:42;9.70;99.90
15997;DHT22;8103;51.340;12.326;2023-04-01T05:53:08;9.70;99.90
15997;DHT22;8103;51.340;12.326;2023-04-01T05:55:35;9.80;99.90
15997;DHT22;8103;51.340;12.326;2023-04-01T05:58:03;9.80;99.90
15997;DHT22;8103;51.340;12.326;2023-04-01T06:00:29;9.80;99.90
15997;DHT22;8103;51.340;12.326;2023-04-01T06:02:59;9.80;99.90
15997;DHT22;8103;51.340;12.326;2023-04-01T06:05:34;9.90;99.90
15997;DHT22;8103;51.340;12.326;2023-04-01T06:08:11;9.90;99.90
15997;DHT22;8103;51.340;12.326;2023-04-01T06:14:19;10.00;99.90
15997;DHT22;8103;51.340;12.326;2023-04-01T06:17:26;10.10;99.90
15997;DHT22;8103;51.340;12.326;2023-04-01T06:23:08;10.20;99.90
15997;DHT22;8103;51.340;12.326;2023-04-01T06:26:07;10.30;99.90
15997;DHT22;8103;51.340;12.326;2023-04-01T06:39:55;10.40;99.90
15997;DHT22;8103;51.340;12.326;2023-04-01T06:56:24;10.70;99.90
15997;DHT22;8103;51.340;12.326;2023-04-01T06:59:02;10.70;99.90
15997;DHT22;8103;51.340;12.326;2023-04-01T07:02:01;10.80;99.90
15997;DHT22;8103;51.340;12.326;2023-04-01T07:04:43;10.80;99.90
15997;DHT22;8103;51.340;12.326;2023-04-01T07:07:34;10.90;99.90
15997;DHT22;8103;51.340;12.326;2023-04-01T07:10:23;11.00;99.90
15997;DHT22;8103;51.340;12.326;2023-04-01T07:13:07;11.10;99.90
15997;DHT22;8103;51.340;12.326;2023-04-01T07:16:12;11.20;99.90
15997;DHT22;8103;51.340;12.326;2023-04-01T07:22:25;11.40;99.90
15997;DHT22;8103;51.340;12.326;2023-04-01T07:24:37;11.40;99.90
15997;DHT22;8103;51.340;12.326;2023-04-01T07:27:13;11.40;99.90
15997;DHT22;8103;51.340;12.326;2023-04-01T07:29:41;11.40;99.90
15997;DHT22;8103;51.340;12.326;2023-04-01T07:39:30;11.40;99.90
15997;DHT22;8103;51.340;12.326;2023-04-01T07:42:23;11.50;99.90
15997;DHT22;8103;51.340;12.326;2023-04-01T07:45:22;11.70;99.90
15997;DHT22;8103;51.340;12.326;2023-04-01T07:48:03;11.90;99.90
15997;DHT22;8103;51.340;12.326;2023-04-01T07:51:01;12.20;99.90
15997;DHT22;8103;51.340;12.326;2023-04-01T07:58:02;12.30;99.90
15997;DHT22;8103;51.340;12.326;2023-04-01T08:01:05;12.20;99.90
15997;DHT22;8103;51.340;12.326;2023-04-01T08:12:48;11.80;99.90
15997;DHT22;8103;51.340;12.326;2023-04-01T08:16:01;11.80;99.90
15997;DHT22;8103;51.340;12.326;2023-04-01T08:18:50;11.90;99.90
15997;DHT22;8103;51.340;12.326;2023-04-01T08:21:31;12.20;99.90
15997;DHT22;8103;51.340;12.326;2023-04-01T08:24:35;12.40;99.90
15997;DHT22;8103;51.340;12.326;2023-04-01T08:27:21;12.60;99.90
15997;DHT22;8103;51.340;12.326;2023-04-01T08:30:21;12.70;99.90
15997;DHT22;8103;51.340;12.326;2023-04-01T08:33:24;12.70;99.90
15997;DHT22;8103;51.340;12.326;2023-04-01T08:36:02;12.80;99.90
15997;DHT22;8103;51.340;12.326;2023-04-01T08:51:51;13.20;99.90
15997;DHT22;8103;51.340;12.326;2023-04-01T09:01:55;13.10;99.90
15997;DHT22;8103;51.340;12.326;2023-04-01T09:09:37;13.00;99.90
15997;DHT22;8103;51.340;12.326;2023-04-01T09:12:38;13.00;99.90
15997;DHT22;8103;51.340;12.326;2023-04-01T09:18:46;13.20;99.90
15997;DHT22;8103;51.340;12.326;2023-04-01T09:30:18;13.10;99.90
15997;DHT22;8103;51.340;12.326;2023-04-01T09:33:26;13.00;99.90
15997;DHT22;8103;51.340;12.326;2023-04-01T09:40:15;12.90;99.90
15997;DHT22;8103;51.340;12.326;2023-04-01T09:47:09;12.90;99.90
15997;DHT22;8103;51.340;12.326;2023-04-01T10:06:57;12.80;99.90
15997;DHT22;8103;51.340;12.326;2023-04-01T10:15:38;12.90;99.90
15997;DHT22;8103;51.340;12.326;2023-04-01T10:21:35;13.00;99.90
15997;DHT22;8103;51.340;12.326;2023-04-01T10:39:08;13.00;99.90
15997;DHT22;8103;51.340;12.326;2023-04-01T10:45:19;13.00;99.90
15997;DHT22;8103;51.340;12.326;2023-04-01T10:57:55;13.20;99.90
15997;DHT22;8103;51.340;12.326;2023-04-01T11:09:48;13.60;99.90
15997;DHT22;8103;51.340;12.326;2023-04-01T11:16:44;14.00;98.90
15997;DHT22;8103;51.340;12.326;2023-04-01T11:19:35;14.00;98.50
15997;DHT22;8103;51.340;12.326;2023-04-01T11:25:45;14.10;99.20
15997;DHT22;8103;51.340;12.326;2023-04-01T11:32:14;14.40;98.50
15997;DHT22;8103;51.340;12.326;2023-04-01T11:41:49;16.40;94.50
15997;DHT22;8103;51.340;12.326;2023-04-01T11:44:26;16.60;93.00
15997;DHT22;8103;51.340;12.326;2023-04-01T11:47:19;16.60;93.20
15997;DHT22;8103;51.340;12.326;2023-04-01T11:53:29;15.50;96.00
15997;DHT22;8103;51.340;12.326;2023-04-01T11:56:38;14.80;97.70
15997;DHT22;8103;51.340;12.326;2023-04-01T12:02:29;14.10;99.90
15997;DHT22;8103;51.340;12.326;2023-04-01T12:09:46;13.80;99.90
15997;DHT22;8103;51.340;12.326;2023-04-01T12:19:44;13.60;99.90
15997;DHT22;8103;51.340;12.326;2023-04-01T12:22:54;13.50;99.90
15997;DHT22;8103;51.340;12.326;2023-04-01T12:38:48;13.20;99.90
15997;DHT22;8103;51.340;12.326;2023-04-01T12:47:31;13.30;99.90
15997;DHT22;8103;51.340;12.326;2023-04-01T13:00:42;13.50;99.90
15997;DHT22;8103;51.340;12.326;2023-04-01T13:06:32;13.20;99.90
15997;DHT22;8103;51.340;12.326;2023-04-01T13:21:21;13.10;99.90
15997;DHT22;8103;51.340;12.326;2023-04-01T13:24:18;12.90;99.90
15997;DHT22;8103;51.340;12.326;2023-04-01T13:27:34;12.90;99.90
15997;DHT22;8103;51.340;12.326;2023-04-01T13:30:30;12.90;99.90
15997;DHT22;8103;51.340;12.326;2023-04-01T13:33:26;12.80;99.90
15997;DHT22;8103;51.340;12.326;2023-04-01T13:36:14;12.80;99.90
15997;DHT22;8103;51.340;12.326;2023-04-01T13:43:13;12.80;99.90
15997;DHT22;8103;51.340;12.326;2023-04-01T13:51:29;12.60;99.90
15997;DHT22;8103;51.340;12.326;2023-04-01T13:54:38;12.60;99.90
15997;DHT22;8103;51.340;12.326;2023-04-01T13:57:33;12.50;99.90
15997;DHT22;8103;51.340;12.326;2023-04-01T14:00:51;12.40;99.90
15997;DHT22;8103;51.340;12.326;2023-04-01T14:03:38;12.40;99.90
15997;DHT22;8103;51.340;12.326;2023-04-01T14:06:51;12.40;99.90
15997;DHT22;8103;51.340;12.326;2023-04-01T14:09:44;12.50;99.90
15997;DHT22;8103;51.340;12.326;2023-04-01T14:12:39;12.50;99.90
15997;DHT22;8103;51.340;12.326;2023-04-01T14:28:20;12.60;99.90
15997;DHT22;8103;51.340;12.326;2023-04-01T14:34:40;12.80;99.90
15997;DHT22;8103;51.340;12.326;2023-04-01T14:44:45;13.20;99.90
15997;DHT22;8103;51.340;12.326;2023-04-01T14:47:54;13.40;99.90
15997;DHT22;8103;51.340;12.326;2023-04-01T14:50:43;13.50;99.90
15997;DHT22;8103;51.340;12.326;2023-04-01T14:55:58;13.50;99.90
15997;DHT22;8103;51.340;12.326;2023-04-01T14:58:46;13.50;99.90
15997;DHT22;8103;51.340;12.326;2023-04-01T15:04:25;13.60;99.90
15997;DHT22;8103;51.340;12.326;2023-04-01T15:07:33;13.60;99.90
15997;DHT22;8103;51.340;12.326;2023-04-01T15:16:45;13.60;99.90
15997;DHT22;8103;51.340;12.326;2023-04-01T15:19:36;13.60;99.90
15997;DHT22;8103;51.340;12.326;2023-04-01T15:22:41;13.60;99.90
15997;DHT22;8103;51.340;12.326;2023-04-01T15:25:34;13.60;99.90
15997;DHT22;8103;51.340;12.326;2023-04-01T15:28:28;13.60;99.90
15997;DHT22;8103;51.340;12.326;2023-04-01T15:31:16;13.60;99.90
15997;DHT22;8103;51.340;12.326;2023-04-01T15:39:48;13.40;99.90
15997;DHT22;8103;51.340;12.326;2023-04-01T15:42:32;13.40;99.90
15997;DHT22;8103;51.340;12.326;2023-04-01T15:48:55;13.40;99.90
15997;DHT22;8103;51.340;12.326;2023-04-01T16:08:40;13.40;99.90
15997;DHT22;8103;51.340;12.326;2023-04-01T16:11:43;13.30;99.90
15997;DHT22;8103;51.340;12.326;2023-04-01T16:23:55;13.00;99.90
15997;DHT22;8103;51.340;12.326;2023-04-01T16:29:56;12.90;99.90
15997;DHT22;8103;51.340;12.326;2023-04-01T16:46:39;12.80;99.90
15997;DHT22;8103;51.340;12.326;2023-04-01T16:52:04;12.50;99.90
15997;DHT22;8103;51.340;12.326;2023-04-01T16:57:53;12.30;99.90
15997;DHT22;8103;51.340;12.326;2023-04-01T17:00:40;12.30;99.90
15997;DHT22;8103;51.340;12.326;2023-04-01T17:03:29;12.30;99.90
15997;DHT22;8103;51.340;12.326;2023-04-01T17:06:31;12.30;99.90
15997;DHT22;8103;51.340;12.326;2023-04-01T17:12:09;12.20;99.90
15997;DHT22;8103;51.340;12.326;2023-04-01T17:15:07;12.20;99.90
15997;DHT22;8103;51.340;12.326;2023-04-01T17:21:00;12.10;99.90
15997;DHT22;8103;51.340;12.326;2023-04-01T17:27:28;12.00;99.90
15997;DHT22;8103;51.340;12.326;2023-04-01T17:40:23;11.80;99.90
15997;DHT22;8103;51.340;12.326;2023-04-01T17:49:45;11.70;99.90
15997;DHT22;8103;51.340;12.326;2023-04-01T17:52:37;11.60;99.90
15997;DHT22;8103;51.340;12.326;2023-04-01T17:58:28;11.60;99.90
15997;DHT22;8103;51.340;12.326;2023-04-01T18:11:20;11.40;99.90
15997;DHT22;8103;51.340;12.326;2023-04-01T18:17:21;11.30;99.90
15997;DHT22;8103;51.340;12.326;2023-04-01T18:26:10;11.30;99.90
15997;DHT22;8103;51.340;12.326;2023-04-01T18:31:52;11.20;99.90
15997;DHT22;8103;51.340;12.326;2023-04-01T18:35:03;11.20;99.90
15997;DHT22;8103;51.340;12.326;2023-04-01T18:43:34;11.10;99.90
15997;DHT22;8103;51.340;12.326;2023-04-01T18:46:19;11.10;99.90
15997;DHT22;8103;51.340;12.326;2023-04-01T18:52:24;11.00;99.90
15997;DHT22;8103;51.340;12.326;2023-04-01T18:57:52;11.00;99.90
15997;DHT22;8103;51.340;12.326;2023-04-01T19:00:33;11.00;99.90
15997;DHT22;8103;51.340;12.326;2023-04-01T19:05:44;10.90;99.90
15997;DHT22;8103;51.340;12.326;2023-04-01T19:08:32;10.90;99.90
15997;DHT22;8103;51.340;12.326;2023-04-01T19:11:19;10.90;99.90
15997;DHT22;8103;51.340;12.326;2023-04-01T19:14:22;10.90;99.90
15997;DHT22;8103;51.340;12.326;2023-04-01T19:17:06;10.90;99.90
15997;DHT22;8103;51.340;12.326;2023-04-01T19:27:21;10.60;99.90
15997;DHT22;8103;51.340;12.326;2023-04-01T19:30:28;10.50;99.90
15997;DHT22;8103;51.340;12.326;2023-04-01T19:36:30;10.50;99.90
15997;DHT22;8103;51.340;12.326;2023-04-01T19:45:20;10.40;99.90
15997;DHT22;8103;51.340;12.326;2023-04-01T19:51:07;10.30;99.90
15997;DHT22;8103;51.340;12.326;2023-04-01T19:56:50;10.20;99.90
15997;DHT22;8103;51.340;12.326;2023-04-01T20:10:09;10.00;99.90
15997;DHT22;8103;51.340;12.326;2023-04-01T20:13:21;9.90;99.90
15997;DHT22;8103;51.340;12.326;2023-04-01T20:16:09;9.80;99.90
15997;DHT22;8103;51.340;12.326;2023-04-01T20:18:52;9.80;99.90
15997;DHT22;8103;51.340;12.326;2023-04-01T20:21:50;9.80;99.90
15997;DHT22;8103;51.340;12.326;2023-04-01T20:24:33;9.70;99.90
15997;DHT22;8103;51.340;12.326;2023-04-01T20:27:22;9.70;99.90
15997;DHT22;8103;51.340;12.326;2023-04-01T20:45:14;9.40;99.90
15997;DHT22;8103;51.340;12.326;2023-04-01T20:50:59;9.30;99.90
15997;DHT22;8103;51.340;12.326;2023-04-01T21:00:37;9.20;99.90
15997;DHT22;8103;51.340;12.326;2023-04-01T21:03:38;9.20;99.90
15997;DHT22;8103;51.340;12.326;2023-04-01T21:11:04;9.10;99.90
15997;DHT22;8103;51.340;12.326;2023-04-01T21:17:26;8.90;99.90
15997;DHT22;8103;51.340;12.326;2023-04-01T21:20:18;8.90;99.90
15997;DHT22;8103;51.340;12.326;2023-04-01T21:26:23;8.80;99.90
15997;DHT22;8103;51.340;12.326;2023-04-01T21:29:57;8.80;99.90
15997;DHT22;8103;51.340;12.326;2023-04-01T21:36:09;8.70;99.90
15997;DHT22;8103;51.340;12.326;2023-04-01T21:41:48;8.50;99.90
15997;DHT22;8103;51.340;12.326;2023-04-01T21:44:51;8.50;99.90
15997;DHT22;8103;51.340;12.326;2023-04-01T21:48:12;8.50;99.90
15997;DHT22;8103;51.340;12.326;2023-04-01T21:51:24;8.50;99.90
15997;DHT22;8103;51.340;12.326;2023-04-01T21:54:46;8.40;99.90
15997;DHT22;8103;51.340;12.326;2023-04-01T22:01:01;8.30;99.90
15997;DHT22;8103;51.340;12.326;2023-04-01T22:04:07;8.30;99.90
15997;DHT22;8103;51.340;12.326;2023-04-01T22:11:07;8.20;99.90
15997;DHT22;8103;51.340;12.326;2023-04-01T22:13:54;8.10;99.90
15997;DHT22;8103;51.340;12.326;2023-04-01T22:20:56;7.90;99.90
15997;DHT22;8103;51.340;12.326;2023-04-01T22:23:42;7.80;99.90
15997;DHT22;8103;51.340;12.326;2023-04-01T22:29:41;7.60;99.90
15997;DHT22;8103;51.340;12.326;2023-04-01T22:32:25;7.60;99.90
15997;DHT22;8103;51.340;12.326;2023-04-01T22:39:22;7.60;99.90
15997;DHT22;8103;51.340;12.326;2023-04-01T22:42:02;7.60;99.90
15997;DHT22;8103;51.340;12.326;2023-04-01T22:47:34;7.60;99.90
15997;DHT22;8103;51.340;12.326;2023-04-01T22:50:33;7.50;99.90
15997;DHT22;8103;51.340;12.326;2023-04-01T23:00:37;7.40;99.90
15997;DHT22;8103;51.340;12.326;2023-04-01T23:03:20;7.30;99.90
15997;DHT22;8103;51.340;12.326;2023-04-01T23:06:00;7.30;99.90
15997;DHT22;8103;51.340;12.326;2023-04-01T23:23:33;7.10;99.90
15997;DHT22;8103;51.340;12.326;2023-04-01T23:26:25;7.00;99.90
15997;DHT22;8103;51.340;12.326;2023-04-01T23:29:04;6.90;99.90
15997;DHT22;8103;51.340;12.326;2023-04-01T23:31:42;6.90;99.90
15997;DHT22;8103;51.340;12.326;2023-04-01T23:36:44;6.80;99.90
15997;DHT22;8103;51.340;12.326;2023-04-01T23:39:36;6.80;99.90
15997;DHT22;8103;51.340;12.326;2023-04-01T23:42:20;6.70;99.90
15997;DHT22;8103;51.340;12.326;2023-04-01T23:44:55;6.60;99.90
15997;DHT22;8103;51.340;12.326;2023-04-01T23:47:29;6.60;99.90
15997;DHT22;8103;51.340;12.326;2023-04-01T23:50:20;6.60;99.90
15997;DHT22;8103;51.340;12.326;2023-04-01T23:53:12;6.60;99.90
15997;DHT22;8103;51.340;12.326;2023-04-01T23:55:44;6.50;99.90
15997;DHT22;8103;51.340;12.326;2023-04-01T23:58:49;6.50;99.90
